Terminal Aerodrome Forecast
Issued by NWS

Home | Current Version | Previous Version | Text Only | Print | Product List | Glossary On
Versions: 1 2 3 4 5 6 7 8 9 10 11 12 13 14
000
FTUS45 KREV 160757 AAB
TAFRNO
TAF AMD
KRNO 160757Z 1608/1706 01010G20KT P6SM -SHRASN BKN050 OVC090
     FM160900 35010G16KT 5SM -SHSN BKN025 OVC040
     FM161100 34010G16KT P6SM VCSH SCT020 OVC035
     FM161400 02012G22KT P6SM SCT020=

USA.gov is the U.S. government's official web portal to all federal, state and local government web resources and services.